sensor_id;sensor_type;location;lat;lon;timestamp;P1;durP1;ratioP1;P2;durP2;ratioP2
21878;SDS011;27908;42.708;23.278;2023-05-07T00:02:10;15.43;;;7.70;;
21878;SDS011;27908;42.708;23.278;2023-05-07T00:04:36;13.57;;;7.43;;
21878;SDS011;27908;42.708;23.278;2023-05-07T00:07:02;13.20;;;7.00;;
21878;SDS011;27908;42.708;23.278;2023-05-07T00:09:28;14.60;;;6.88;;
21878;SDS011;27908;42.708;23.278;2023-05-07T00:11:54;14.50;;;8.00;;
21878;SDS011;27908;42.708;23.278;2023-05-07T00:14:19;16.60;;;8.20;;
21878;SDS011;27908;42.708;23.278;2023-05-07T00:16:45;14.38;;;7.82;;
21878;SDS011;27908;42.708;23.278;2023-05-07T00:19:10;14.67;;;7.00;;
21878;SDS011;27908;42.708;23.278;2023-05-07T00:21:36;12.97;;;7.30;;
21878;SDS011;27908;42.708;23.278;2023-05-07T00:24:01;19.83;;;8.93;;
21878;SDS011;27908;42.708;23.278;2023-05-07T00:26:27;16.85;;;8.13;;
21878;SDS011;27908;42.708;23.278;2023-05-07T00:28:52;14.83;;;8.17;;
21878;SDS011;27908;42.708;23.278;2023-05-07T00:31:17;14.67;;;8.47;;
21878;SDS011;27908;42.708;23.278;2023-05-07T00:33:43;20.17;;;9.30;;
21878;SDS011;27908;42.708;23.278;2023-05-07T00:36:08;19.17;;;11.20;;
21878;SDS011;27908;42.708;23.278;2023-05-07T00:38:34;17.40;;;9.33;;
21878;SDS011;27908;42.708;23.278;2023-05-07T00:40:59;16.37;;;8.40;;
21878;SDS011;27908;42.708;23.278;2023-05-07T00:43:25;14.83;;;7.57;;
21878;SDS011;27908;42.708;23.278;2023-05-07T00:45:50;14.32;;;7.75;;
21878;SDS011;27908;42.708;23.278;2023-05-07T00:48:16;15.70;;;8.57;;
21878;SDS011;27908;42.708;23.278;2023-05-07T00:50:42;15.90;;;7.18;;
21878;SDS011;27908;42.708;23.278;2023-05-07T00:53:08;15.00;;;7.80;;
21878;SDS011;27908;42.708;23.278;2023-05-07T00:55:34;16.50;;;8.03;;
21878;SDS011;27908;42.708;23.278;2023-05-07T00:58:01;15.48;;;7.78;;
21878;SDS011;27908;42.708;23.278;2023-05-07T01:00:26;16.33;;;8.00;;
21878;SDS011;27908;42.708;23.278;2023-05-07T01:02:51;13.65;;;7.80;;
21878;SDS011;27908;42.708;23.278;2023-05-07T01:05:18;15.33;;;7.37;;
21878;SDS011;27908;42.708;23.278;2023-05-07T01:07:45;16.02;;;7.88;;
21878;SDS011;27908;42.708;23.278;2023-05-07T01:10:11;19.17;;;8.25;;
21878;SDS011;27908;42.708;23.278;2023-05-07T01:12:37;17.90;;;8.38;;
21878;SDS011;27908;42.708;23.278;2023-05-07T01:15:04;14.68;;;8.02;;
21878;SDS011;27908;42.708;23.278;2023-05-07T01:17:38;15.83;;;7.87;;
21878;SDS011;27908;42.708;23.278;2023-05-07T01:20:05;16.17;;;8.18;;
21878;SDS011;27908;42.708;23.278;2023-05-07T01:22:41;15.48;;;7.72;;
21878;SDS011;27908;42.708;23.278;2023-05-07T01:25:08;13.95;;;7.53;;
21878;SDS011;27908;42.708;23.278;2023-05-07T01:27:34;15.43;;;7.83;;
21878;SDS011;27908;42.708;23.278;2023-05-07T01:30:01;15.02;;;7.88;;
21878;SDS011;27908;42.708;23.278;2023-05-07T01:32:28;13.53;;;7.93;;
21878;SDS011;27908;42.708;23.278;2023-05-07T01:34:57;17.40;;;8.80;;
21878;SDS011;27908;42.708;23.278;2023-05-07T01:37:23;13.77;;;7.38;;
21878;SDS011;27908;42.708;23.278;2023-05-07T01:39:49;16.95;;;8.52;;
21878;SDS011;27908;42.708;23.278;2023-05-07T01:42:15;16.77;;;8.33;;
21878;SDS011;27908;42.708;23.278;2023-05-07T01:44:40;18.03;;;8.97;;
21878;SDS011;27908;42.708;23.278;2023-05-07T01:47:06;17.23;;;8.30;;
21878;SDS011;27908;42.708;23.278;2023-05-07T01:49:32;17.63;;;9.67;;
21878;SDS011;27908;42.708;23.278;2023-05-07T01:51:58;20.95;;;9.82;;
21878;SDS011;27908;42.708;23.278;2023-05-07T01:54:27;20.45;;;9.95;;
21878;SDS011;27908;42.708;23.278;2023-05-07T01:56:53;18.43;;;10.10;;
21878;SDS011;27908;42.708;23.278;2023-05-07T01:59:20;18.75;;;10.27;;
21878;SDS011;27908;42.708;23.278;2023-05-07T02:01:48;18.65;;;10.68;;
21878;SDS011;27908;42.708;23.278;2023-05-07T02:04:13;18.03;;;9.17;;
21878;SDS011;27908;42.708;23.278;2023-05-07T02:06:39;18.80;;;8.48;;
21878;SDS011;27908;42.708;23.278;2023-05-07T02:09:05;18.40;;;8.67;;
21878;SDS011;27908;42.708;23.278;2023-05-07T02:11:30;18.13;;;9.50;;
21878;SDS011;27908;42.708;23.278;2023-05-07T02:13:55;19.60;;;8.83;;
21878;SDS011;27908;42.708;23.278;2023-05-07T02:16:21;17.37;;;9.63;;
21878;SDS011;27908;42.708;23.278;2023-05-07T02:18:48;16.20;;;8.90;;
21878;SDS011;27908;42.708;23.278;2023-05-07T02:21:13;16.90;;;9.40;;
21878;SDS011;27908;42.708;23.278;2023-05-07T02:23:38;18.40;;;9.00;;
21878;SDS011;27908;42.708;23.278;2023-05-07T02:26:04;20.23;;;9.53;;
21878;SDS011;27908;42.708;23.278;2023-05-07T02:28:29;16.43;;;8.93;;
21878;SDS011;27908;42.708;23.278;2023-05-07T02:30:55;18.53;;;9.70;;
21878;SDS011;27908;42.708;23.278;2023-05-07T02:33:20;18.23;;;8.97;;
21878;SDS011;27908;42.708;23.278;2023-05-07T02:35:46;19.20;;;8.93;;
21878;SDS011;27908;42.708;23.278;2023-05-07T02:38:11;19.00;;;9.57;;
21878;SDS011;27908;42.708;23.278;2023-05-07T02:40:36;18.35;;;9.55;;
21878;SDS011;27908;42.708;23.278;2023-05-07T02:43:04;18.07;;;10.67;;
21878;SDS011;27908;42.708;23.278;2023-05-07T02:45:30;21.50;;;9.93;;
21878;SDS011;27908;42.708;23.278;2023-05-07T02:47:57;17.38;;;9.40;;
21878;SDS011;27908;42.708;23.278;2023-05-07T02:50:22;17.70;;;10.63;;
21878;SDS011;27908;42.708;23.278;2023-05-07T02:52:47;17.57;;;9.83;;
21878;SDS011;27908;42.708;23.278;2023-05-07T02:55:13;22.80;;;10.60;;
21878;SDS011;27908;42.708;23.278;2023-05-07T02:57:39;17.40;;;9.30;;
21878;SDS011;27908;42.708;23.278;2023-05-07T03:00:14;16.90;;;9.33;;
21878;SDS011;27908;42.708;23.278;2023-05-07T03:02:41;20.38;;;10.10;;
21878;SDS011;27908;42.708;23.278;2023-05-07T03:05:06;20.43;;;10.20;;
21878;SDS011;27908;42.708;23.278;2023-05-07T03:07:33;21.42;;;10.65;;
21878;SDS011;27908;42.708;23.278;2023-05-07T03:09:59;18.70;;;10.48;;
21878;SDS011;27908;42.708;23.278;2023-05-07T03:12:25;18.30;;;9.97;;
21878;SDS011;27908;42.708;23.278;2023-05-07T03:14:50;18.57;;;11.03;;
21878;SDS011;27908;42.708;23.278;2023-05-07T03:17:16;15.52;;;8.65;;
21878;SDS011;27908;42.708;23.278;2023-05-07T03:19:41;24.60;;;12.10;;
21878;SDS011;27908;42.708;23.278;2023-05-07T03:22:06;20.17;;;10.23;;
21878;SDS011;27908;42.708;23.278;2023-05-07T03:24:32;19.40;;;10.37;;
21878;SDS011;27908;42.708;23.278;2023-05-07T03:26:57;19.50;;;9.93;;
21878;SDS011;27908;42.708;23.278;2023-05-07T03:29:23;14.73;;;8.97;;
21878;SDS011;27908;42.708;23.278;2023-05-07T03:31:48;18.90;;;9.97;;
21878;SDS011;27908;42.708;23.278;2023-05-07T03:34:14;18.10;;;10.32;;
21878;SDS011;27908;42.708;23.278;2023-05-07T03:36:41;17.63;;;9.30;;
21878;SDS011;27908;42.708;23.278;2023-05-07T03:39:07;20.00;;;10.30;;
21878;SDS011;27908;42.708;23.278;2023-05-07T03:41:32;17.97;;;9.77;;
21878;SDS011;27908;42.708;23.278;2023-05-07T03:43:58;16.23;;;9.53;;
21878;SDS011;27908;42.708;23.278;2023-05-07T03:46:23;17.83;;;10.13;;
21878;SDS011;27908;42.708;23.278;2023-05-07T03:48:51;18.40;;;9.82;;
21878;SDS011;27908;42.708;23.278;2023-05-07T03:51:16;18.80;;;9.77;;
21878;SDS011;27908;42.708;23.278;2023-05-07T03:53:42;17.83;;;9.80;;
21878;SDS011;27908;42.708;23.278;2023-05-07T03:56:07;21.53;;;9.70;;
21878;SDS011;27908;42.708;23.278;2023-05-07T03:58:32;16.07;;;9.63;;
21878;SDS011;27908;42.708;23.278;2023-05-07T04:00:58;17.30;;;9.57;;
21878;SDS011;27908;42.708;23.278;2023-05-07T04:03:24;18.35;;;9.93;;
21878;SDS011;27908;42.708;23.278;2023-05-07T04:05:49;18.80;;;10.20;;
21878;SDS011;27908;42.708;23.278;2023-05-07T04:08:15;19.67;;;9.83;;
21878;SDS011;27908;42.708;23.278;2023-05-07T04:10:40;18.47;;;10.27;;
21878;SDS011;27908;42.708;23.278;2023-05-07T04:13:05;17.95;;;9.88;;
21878;SDS011;27908;42.708;23.278;2023-05-07T04:15:31;18.23;;;9.80;;
21878;SDS011;27908;42.708;23.278;2023-05-07T04:17:56;18.43;;;9.93;;
21878;SDS011;27908;42.708;23.278;2023-05-07T04:20:22;16.15;;;9.23;;
21878;SDS011;27908;42.708;23.278;2023-05-07T04:22:48;18.23;;;9.00;;
21878;SDS011;27908;42.708;23.278;2023-05-07T04:25:13;20.27;;;10.40;;
21878;SDS011;27908;42.708;23.278;2023-05-07T04:27:41;18.17;;;9.95;;
21878;SDS011;27908;42.708;23.278;2023-05-07T04:30:06;17.97;;;10.77;;
21878;SDS011;27908;42.708;23.278;2023-05-07T04:32:32;19.15;;;11.15;;
21878;SDS011;27908;42.708;23.278;2023-05-07T04:34:58;19.80;;;11.77;;
21878;SDS011;27908;42.708;23.278;2023-05-07T04:37:23;21.83;;;12.93;;
21878;SDS011;27908;42.708;23.278;2023-05-07T04:39:48;30.07;;;18.10;;
21878;SDS011;27908;42.708;23.278;2023-05-07T04:42:14;24.27;;;13.90;;
21878;SDS011;27908;42.708;23.278;2023-05-07T04:44:41;38.75;;;24.73;;
21878;SDS011;27908;42.708;23.278;2023-05-07T04:47:06;22.70;;;12.33;;
21878;SDS011;27908;42.708;23.278;2023-05-07T04:49:31;31.90;;;19.27;;
21878;SDS011;27908;42.708;23.278;2023-05-07T04:51:57;24.20;;;13.80;;
21878;SDS011;27908;42.708;23.278;2023-05-07T04:54:22;25.13;;;12.32;;
21878;SDS011;27908;42.708;23.278;2023-05-07T04:56:48;26.17;;;14.77;;
21878;SDS011;27908;42.708;23.278;2023-05-07T04:59:13;23.47;;;15.07;;
21878;SDS011;27908;42.708;23.278;2023-05-07T05:01:38;26.83;;;15.80;;
21878;SDS011;27908;42.708;23.278;2023-05-07T05:04:05;25.27;;;14.90;;
21878;SDS011;27908;42.708;23.278;2023-05-07T05:06:30;21.07;;;11.70;;
21878;SDS011;27908;42.708;23.278;2023-05-07T05:08:56;19.50;;;10.87;;
21878;SDS011;27908;42.708;23.278;2023-05-07T05:11:21;17.38;;;10.45;;
21878;SDS011;27908;42.708;23.278;2023-05-07T05:13:46;33.37;;;19.53;;
21878;SDS011;27908;42.708;23.278;2023-05-07T05:16:15;20.77;;;11.73;;
21878;SDS011;27908;42.708;23.278;2023-05-07T05:18:41;17.37;;;9.77;;
21878;SDS011;27908;42.708;23.278;2023-05-07T05:21:06;21.47;;;12.17;;
21878;SDS011;27908;42.708;23.278;2023-05-07T05:23:31;18.23;;;10.80;;
21878;SDS011;27908;42.708;23.278;2023-05-07T05:25:57;21.00;;;12.03;;
21878;SDS011;27908;42.708;23.278;2023-05-07T05:28:23;21.47;;;10.33;;
21878;SDS011;27908;42.708;23.278;2023-05-07T05:30:48;17.92;;;10.40;;
21878;SDS011;27908;42.708;23.278;2023-05-07T05:33:14;16.55;;;9.25;;
21878;SDS011;27908;42.708;23.278;2023-05-07T05:35:40;17.73;;;10.90;;
21878;SDS011;27908;42.708;23.278;2023-05-07T05:38:06;19.63;;;10.77;;
21878;SDS011;27908;42.708;23.278;2023-05-07T05:40:31;18.63;;;10.97;;
21878;SDS011;27908;42.708;23.278;2023-05-07T05:42:57;17.43;;;9.97;;
21878;SDS011;27908;42.708;23.278;2023-05-07T05:45:22;18.13;;;10.27;;
21878;SDS011;27908;42.708;23.278;2023-05-07T05:47:48;17.17;;;10.52;;
21878;SDS011;27908;42.708;23.278;2023-05-07T05:50:13;17.90;;;9.70;;
21878;SDS011;27908;42.708;23.278;2023-05-07T05:52:38;17.00;;;10.00;;
21878;SDS011;27908;42.708;23.278;2023-05-07T05:55:05;18.77;;;9.90;;
21878;SDS011;27908;42.708;23.278;2023-05-07T05:57:31;19.30;;;10.43;;
21878;SDS011;27908;42.708;23.278;2023-05-07T05:59:57;17.73;;;10.37;;
21878;SDS011;27908;42.708;23.278;2023-05-07T06:02:23;22.42;;;10.38;;
21878;SDS011;27908;42.708;23.278;2023-05-07T06:04:48;19.53;;;10.37;;
21878;SDS011;27908;42.708;23.278;2023-05-07T06:07:14;21.13;;;11.83;;
21878;SDS011;27908;42.708;23.278;2023-05-07T06:09:39;23.55;;;13.23;;
21878;SDS011;27908;42.708;23.278;2023-05-07T06:12:04;25.73;;;13.23;;
21878;SDS011;27908;42.708;23.278;2023-05-07T06:14:30;18.08;;;10.13;;
21878;SDS011;27908;42.708;23.278;2023-05-07T06:16:56;55.63;;;31.03;;
21878;SDS011;27908;42.708;23.278;2023-05-07T06:19:22;36.43;;;19.83;;
21878;SDS011;27908;42.708;23.278;2023-05-07T06:21:49;17.40;;;10.05;;
21878;SDS011;27908;42.708;23.278;2023-05-07T06:24:14;26.65;;;12.60;;
21878;SDS011;27908;42.708;23.278;2023-05-07T06:26:40;18.27;;;9.47;;
21878;SDS011;27908;42.708;23.278;2023-05-07T06:29:05;20.90;;;11.13;;
21878;SDS011;27908;42.708;23.278;2023-05-07T06:31:31;19.20;;;10.20;;
21878;SDS011;27908;42.708;23.278;2023-05-07T06:33:57;34.77;;;18.17;;
21878;SDS011;27908;42.708;23.278;2023-05-07T06:36:22;22.43;;;11.20;;
21878;SDS011;27908;42.708;23.278;2023-05-07T06:38:48;107.65;;;53.22;;
21878;SDS011;27908;42.708;23.278;2023-05-07T06:41:13;23.93;;;12.73;;
21878;SDS011;27908;42.708;23.278;2023-05-07T06:43:39;16.43;;;9.20;;
21878;SDS011;27908;42.708;23.278;2023-05-07T06:46:04;38.00;;;18.35;;
21878;SDS011;27908;42.708;23.278;2023-05-07T06:48:30;43.23;;;24.03;;
21878;SDS011;27908;42.708;23.278;2023-05-07T06:50:55;18.40;;;10.40;;
21878;SDS011;27908;42.708;23.278;2023-05-07T06:53:22;18.97;;;10.27;;
21878;SDS011;27908;42.708;23.278;2023-05-07T06:55:48;17.75;;;9.30;;
21878;SDS011;27908;42.708;23.278;2023-05-07T06:58:14;22.13;;;11.20;;
21878;SDS011;27908;42.708;23.278;2023-05-07T07:00:39;17.80;;;9.02;;
21878;SDS011;27908;42.708;23.278;2023-05-07T07:03:05;15.77;;;9.40;;
21878;SDS011;27908;42.708;23.278;2023-05-07T07:05:31;16.83;;;9.43;;
21878;SDS011;27908;42.708;23.278;2023-05-07T07:07:57;16.73;;;9.07;;
21878;SDS011;27908;42.708;23.278;2023-05-07T07:10:22;21.23;;;9.98;;
21878;SDS011;27908;42.708;23.278;2023-05-07T07:12:48;18.10;;;8.83;;
21878;SDS011;27908;42.708;23.278;2023-05-07T07:15:14;15.93;;;8.90;;
21878;SDS011;27908;42.708;23.278;2023-05-07T07:17:40;16.90;;;9.50;;
21878;SDS011;27908;42.708;23.278;2023-05-07T07:20:06;18.13;;;9.63;;
21878;SDS011;27908;42.708;23.278;2023-05-07T07:22:32;17.77;;;9.55;;
21878;SDS011;27908;42.708;23.278;2023-05-07T07:24:57;20.17;;;10.20;;
21878;SDS011;27908;42.708;23.278;2023-05-07T07:27:23;17.23;;;9.27;;
21878;SDS011;27908;42.708;23.278;2023-05-07T07:29:48;18.77;;;9.03;;
21878;SDS011;27908;42.708;23.278;2023-05-07T07:32:14;17.08;;;9.23;;
21878;SDS011;27908;42.708;23.278;2023-05-07T07:34:40;15.43;;;8.80;;
21878;SDS011;27908;42.708;23.278;2023-05-07T07:37:05;13.13;;;7.60;;
21878;SDS011;27908;42.708;23.278;2023-05-07T07:39:34;17.00;;;8.20;;
21878;SDS011;27908;42.708;23.278;2023-05-07T07:42:00;13.63;;;8.33;;
21878;SDS011;27908;42.708;23.278;2023-05-07T07:44:26;13.20;;;7.47;;
21878;SDS011;27908;42.708;23.278;2023-05-07T07:46:52;14.38;;;7.90;;
21878;SDS011;27908;42.708;23.278;2023-05-07T07:49:17;13.33;;;8.23;;
21878;SDS011;27908;42.708;23.278;2023-05-07T07:51:43;14.83;;;7.47;;
21878;SDS011;27908;42.708;23.278;2023-05-07T07:54:08;16.23;;;7.87;;
21878;SDS011;27908;42.708;23.278;2023-05-07T07:56:34;12.80;;;7.78;;
21878;SDS011;27908;42.708;23.278;2023-05-07T07:58:59;16.23;;;7.73;;
21878;SDS011;27908;42.708;23.278;2023-05-07T08:01:25;12.48;;;7.25;;
21878;SDS011;27908;42.708;23.278;2023-05-07T08:03:51;19.57;;;10.00;;
21878;SDS011;27908;42.708;23.278;2023-05-07T08:06:16;15.52;;;8.73;;
21878;SDS011;27908;42.708;23.278;2023-05-07T08:08:42;15.63;;;8.03;;
21878;SDS011;27908;42.708;23.278;2023-05-07T08:11:08;13.83;;;7.70;;
21878;SDS011;27908;42.708;23.278;2023-05-07T08:13:33;12.00;;;6.93;;
21878;SDS011;27908;42.708;23.278;2023-05-07T08:18:43;13.38;;;7.90;;
21878;SDS011;27908;42.708;23.278;2023-05-07T08:21:08;13.80;;;6.83;;
21878;SDS011;27908;42.708;23.278;2023-05-07T08:23:33;12.67;;;7.43;;
21878;SDS011;27908;42.708;23.278;2023-05-07T08:25:59;13.82;;;7.35;;
21878;SDS011;27908;42.708;23.278;2023-05-07T08:28:25;13.30;;;8.38;;
21878;SDS011;27908;42.708;23.278;2023-05-07T08:30:51;15.33;;;6.83;;
21878;SDS011;27908;42.708;23.278;2023-05-07T08:33:16;12.87;;;6.20;;
21878;SDS011;27908;42.708;23.278;2023-05-07T08:35:42;12.57;;;6.63;;
21878;SDS011;27908;42.708;23.278;2023-05-07T08:38:07;13.30;;;7.07;;
21878;SDS011;27908;42.708;23.278;2023-05-07T08:40:37;10.15;;;6.00;;
21878;SDS011;27908;42.708;23.278;2023-05-07T08:43:05;14.30;;;6.70;;
21878;SDS011;27908;42.708;23.278;2023-05-07T08:45:34;11.38;;;5.93;;
21878;SDS011;27908;42.708;23.278;2023-05-07T08:48:05;13.20;;;6.35;;
21878;SDS011;27908;42.708;23.278;2023-05-07T08:50:37;10.82;;;5.43;;
21878;SDS011;27908;42.708;23.278;2023-05-07T08:53:03;11.77;;;6.17;;
21878;SDS011;27908;42.708;23.278;2023-05-07T08:55:30;9.48;;;5.32;;
21878;SDS011;27908;42.708;23.278;2023-05-07T08:57:56;13.48;;;6.57;;
21878;SDS011;27908;42.708;23.278;2023-05-07T09:00:21;12.53;;;5.47;;
21878;SDS011;27908;42.708;23.278;2023-05-07T09:02:47;12.60;;;5.60;;
21878;SDS011;27908;42.708;23.278;2023-05-07T09:05:13;11.52;;;6.30;;
21878;SDS011;27908;42.708;23.278;2023-05-07T09:07:38;14.33;;;5.57;;
21878;SDS011;27908;42.708;23.278;2023-05-07T09:10:04;11.20;;;6.00;;
21878;SDS011;27908;42.708;23.278;2023-05-07T09:12:30;11.02;;;6.20;;
21878;SDS011;27908;42.708;23.278;2023-05-07T09:14:58;11.10;;;5.47;;
21878;SDS011;27908;42.708;23.278;2023-05-07T09:17:24;12.15;;;5.65;;
21878;SDS011;27908;42.708;23.278;2023-05-07T09:19:49;11.63;;;5.50;;
21878;SDS011;27908;42.708;23.278;2023-05-07T09:22:15;12.53;;;5.30;;
21878;SDS011;27908;42.708;23.278;2023-05-07T09:24:41;12.97;;;6.37;;
21878;SDS011;27908;42.708;23.278;2023-05-07T09:27:12;9.68;;;5.38;;
21878;SDS011;27908;42.708;23.278;2023-05-07T09:29:38;12.60;;;5.80;;
21878;SDS011;27908;42.708;23.278;2023-05-07T09:32:07;11.57;;;5.87;;
21878;SDS011;27908;42.708;23.278;2023-05-07T09:34:33;11.05;;;4.88;;
21878;SDS011;27908;42.708;23.278;2023-05-07T09:37:03;8.77;;;4.65;;
21878;SDS011;27908;42.708;23.278;2023-05-07T09:39:39;11.38;;;4.30;;
21878;SDS011;27908;42.708;23.278;2023-05-07T09:42:06;8.88;;;4.13;;
21878;SDS011;27908;42.708;23.278;2023-05-07T09:44:31;8.90;;;3.50;;
21878;SDS011;27908;42.708;23.278;2023-05-07T09:46:58;7.20;;;3.92;;
21878;SDS011;27908;42.708;23.278;2023-05-07T09:49:25;8.20;;;4.57;;
21878;SDS011;27908;42.708;23.278;2023-05-07T09:51:54;9.73;;;5.07;;
21878;SDS011;27908;42.708;23.278;2023-05-07T09:54:21;7.37;;;3.73;;
21878;SDS011;27908;42.708;23.278;2023-05-07T09:56:48;9.45;;;4.70;;
21878;SDS011;27908;42.708;23.278;2023-05-07T09:59:15;10.03;;;4.27;;
21878;SDS011;27908;42.708;23.278;2023-05-07T10:01:42;8.20;;;4.07;;
21878;SDS011;27908;42.708;23.278;2023-05-07T10:04:09;13.00;;;4.13;;
21878;SDS011;27908;42.708;23.278;2023-05-07T10:06:36;8.80;;;4.35;;
21878;SDS011;27908;42.708;23.278;2023-05-07T10:09:03;8.05;;;4.13;;
21878;SDS011;27908;42.708;23.278;2023-05-07T10:11:33;8.20;;;3.90;;
21878;SDS011;27908;42.708;23.278;2023-05-07T10:13:59;7.90;;;3.30;;
21878;SDS011;27908;42.708;23.278;2023-05-07T10:16:27;7.10;;;3.55;;
21878;SDS011;27908;42.708;23.278;2023-05-07T10:19:04;7.35;;;3.60;;
21878;SDS011;27908;42.708;23.278;2023-05-07T10:21:34;9.40;;;4.00;;
21878;SDS011;27908;42.708;23.278;2023-05-07T10:24:12;8.77;;;4.00;;
21878;SDS011;27908;42.708;23.278;2023-05-07T10:26:45;8.13;;;3.33;;
21878;SDS011;27908;42.708;23.278;2023-05-07T10:29:24;6.45;;;3.08;;
21878;SDS011;27908;42.708;23.278;2023-05-07T10:35:19;7.05;;;3.60;;
21878;SDS011;27908;42.708;23.278;2023-05-07T10:37:48;8.23;;;3.80;;
21878;SDS011;27908;42.708;23.278;2023-05-07T10:40:14;8.13;;;3.90;;
21878;SDS011;27908;42.708;23.278;2023-05-07T10:42:52;7.13;;;3.65;;
21878;SDS011;27908;42.708;23.278;2023-05-07T10:45:25;8.77;;;3.43;;
21878;SDS011;27908;42.708;23.278;2023-05-07T10:50:40;6.97;;;3.40;;
21878;SDS011;27908;42.708;23.278;2023-05-07T10:55:41;8.07;;;4.07;;
21878;SDS011;27908;42.708;23.278;2023-05-07T10:58:23;9.37;;;4.13;;
21878;SDS011;27908;42.708;23.278;2023-05-07T11:00:55;7.93;;;3.88;;
21878;SDS011;27908;42.708;23.278;2023-05-07T11:03:22;7.60;;;3.65;;
21878;SDS011;27908;42.708;23.278;2023-05-07T11:05:47;9.17;;;3.80;;
21878;SDS011;27908;42.708;23.278;2023-05-07T11:11:18;8.13;;;2.97;;
21878;SDS011;27908;42.708;23.278;2023-05-07T11:13:47;7.32;;;3.03;;
21878;SDS011;27908;42.708;23.278;2023-05-07T11:18:51;7.40;;;2.80;;
21878;SDS011;27908;42.708;23.278;2023-05-07T11:21:33;8.43;;;3.63;;
21878;SDS011;27908;42.708;23.278;2023-05-07T11:24:01;6.13;;;2.88;;
21878;SDS011;27908;42.708;23.278;2023-05-07T11:26:28;6.13;;;2.83;;
21878;SDS011;27908;42.708;23.278;2023-05-07T11:29:19;6.33;;;2.70;;
21878;SDS011;27908;42.708;23.278;2023-05-07T11:31:53;6.20;;;2.80;;
21878;SDS011;27908;42.708;23.278;2023-05-07T11:34:23;7.82;;;3.35;;
21878;SDS011;27908;42.708;23.278;2023-05-07T11:36:50;7.70;;;3.25;;
21878;SDS011;27908;42.708;23.278;2023-05-07T11:39:29;8.63;;;3.80;;
21878;SDS011;27908;42.708;23.278;2023-05-07T11:42:00;12.80;;;4.57;;
21878;SDS011;27908;42.708;23.278;2023-05-07T11:44:42;10.75;;;3.10;;
21878;SDS011;27908;42.708;23.278;2023-05-07T11:47:09;11.75;;;4.03;;
21878;SDS011;27908;42.708;23.278;2023-05-07T11:49:35;6.30;;;3.05;;
21878;SDS011;27908;42.708;23.278;2023-05-07T11:52:01;6.10;;;2.90;;
21878;SDS011;27908;42.708;23.278;2023-05-07T11:54:34;6.50;;;2.25;;
21878;SDS011;27908;42.708;23.278;2023-05-07T11:57:00;6.05;;;2.90;;
21878;SDS011;27908;42.708;23.278;2023-05-07T11:59:26;8.27;;;3.20;;
21878;SDS011;27908;42.708;23.278;2023-05-07T12:01:51;6.30;;;3.20;;
21878;SDS011;27908;42.708;23.278;2023-05-07T12:04:19;6.05;;;2.70;;
21878;SDS011;27908;42.708;23.278;2023-05-07T12:06:45;7.17;;;2.63;;
21878;SDS011;27908;42.708;23.278;2023-05-07T12:09:11;6.63;;;2.70;;
21878;SDS011;27908;42.708;23.278;2023-05-07T12:11:36;6.30;;;2.77;;
21878;SDS011;27908;42.708;23.278;2023-05-07T12:14:04;6.70;;;2.90;;
21878;SDS011;27908;42.708;23.278;2023-05-07T12:16:30;6.47;;;2.60;;
21878;SDS011;27908;42.708;23.278;2023-05-07T12:18:56;7.13;;;3.30;;
21878;SDS011;27908;42.708;23.278;2023-05-07T12:21:23;7.63;;;2.78;;
21878;SDS011;27908;42.708;23.278;2023-05-07T12:23:50;7.47;;;2.97;;
21878;SDS011;27908;42.708;23.278;2023-05-07T12:26:15;8.43;;;3.00;;
21878;SDS011;27908;42.708;23.278;2023-05-07T12:28:41;6.28;;;2.58;;
21878;SDS011;27908;42.708;23.278;2023-05-07T12:31:07;6.67;;;2.70;;
21878;SDS011;27908;42.708;23.278;2023-05-07T12:33:32;6.38;;;2.78;;
21878;SDS011;27908;42.708;23.278;2023-05-07T12:36:02;6.63;;;2.60;;
21878;SDS011;27908;42.708;23.278;2023-05-07T12:38:32;6.50;;;2.40;;
21878;SDS011;27908;42.708;23.278;2023-05-07T12:41:00;7.47;;;2.63;;
21878;SDS011;27908;42.708;23.278;2023-05-07T12:43:26;7.78;;;2.78;;
21878;SDS011;27908;42.708;23.278;2023-05-07T12:45:54;7.40;;;3.00;;
21878;SDS011;27908;42.708;23.278;2023-05-07T12:48:21;6.35;;;2.80;;
21878;SDS011;27908;42.708;23.278;2023-05-07T12:50:51;6.93;;;2.58;;
21878;SDS011;27908;42.708;23.278;2023-05-07T12:53:17;7.43;;;2.90;;
21878;SDS011;27908;42.708;23.278;2023-05-07T12:55:47;6.30;;;2.80;;
21878;SDS011;27908;42.708;23.278;2023-05-07T12:58:15;9.10;;;2.70;;
21878;SDS011;27908;42.708;23.278;2023-05-07T13:00:42;7.32;;;2.67;;
21878;SDS011;27908;42.708;23.278;2023-05-07T13:03:08;7.38;;;2.42;;
21878;SDS011;27908;42.708;23.278;2023-05-07T13:05:34;6.65;;;2.78;;
21878;SDS011;27908;42.708;23.278;2023-05-07T13:08:00;15.57;;;2.87;;
21878;SDS011;27908;42.708;23.278;2023-05-07T13:10:26;6.30;;;2.65;;
21878;SDS011;27908;42.708;23.278;2023-05-07T13:12:52;7.50;;;2.83;;
21878;SDS011;27908;42.708;23.278;2023-05-07T13:18:03;6.63;;;3.05;;
21878;SDS011;27908;42.708;23.278;2023-05-07T13:20:29;7.93;;;3.00;;
21878;SDS011;27908;42.708;23.278;2023-05-07T13:22:54;6.60;;;2.60;;
21878;SDS011;27908;42.708;23.278;2023-05-07T13:25:19;7.10;;;2.53;;
21878;SDS011;27908;42.708;23.278;2023-05-07T13:27:45;6.72;;;3.35;;
21878;SDS011;27908;42.708;23.278;2023-05-07T13:30:10;7.60;;;2.50;;
21878;SDS011;27908;42.708;23.278;2023-05-07T13:32:36;6.10;;;2.80;;
21878;SDS011;27908;42.708;23.278;2023-05-07T13:35:01;6.17;;;2.43;;
21878;SDS011;27908;42.708;23.278;2023-05-07T13:37:26;7.13;;;2.60;;
21878;SDS011;27908;42.708;23.278;2023-05-07T13:39:52;6.50;;;2.40;;
21878;SDS011;27908;42.708;23.278;2023-05-07T13:42:17;8.00;;;2.53;;
21878;SDS011;27908;42.708;23.278;2023-05-07T13:44:43;8.33;;;2.93;;
21878;SDS011;27908;42.708;23.278;2023-05-07T13:47:08;6.90;;;3.00;;
21878;SDS011;27908;42.708;23.278;2023-05-07T13:49:34;6.47;;;3.00;;
21878;SDS011;27908;42.708;23.278;2023-05-07T13:51:59;5.67;;;2.50;;
21878;SDS011;27908;42.708;23.278;2023-05-07T13:54:25;6.35;;;2.70;;
21878;SDS011;27908;42.708;23.278;2023-05-07T13:56:50;7.83;;;2.60;;
21878;SDS011;27908;42.708;23.278;2023-05-07T13:59:15;5.83;;;2.27;;
21878;SDS011;27908;42.708;23.278;2023-05-07T14:01:41;6.33;;;2.27;;
21878;SDS011;27908;42.708;23.278;2023-05-07T14:04:06;8.10;;;2.30;;
21878;SDS011;27908;42.708;23.278;2023-05-07T14:06:32;6.00;;;2.70;;
21878;SDS011;27908;42.708;23.278;2023-05-07T14:08:58;6.75;;;2.50;;
21878;SDS011;27908;42.708;23.278;2023-05-07T14:11:23;7.47;;;2.30;;
21878;SDS011;27908;42.708;23.278;2023-05-07T14:13:48;7.13;;;2.63;;
21878;SDS011;27908;42.708;23.278;2023-05-07T14:16:14;6.83;;;2.67;;
21878;SDS011;27908;42.708;23.278;2023-05-07T14:18:39;6.43;;;3.00;;
21878;SDS011;27908;42.708;23.278;2023-05-07T14:21:05;8.93;;;3.10;;
21878;SDS011;27908;42.708;23.278;2023-05-07T14:23:34;6.85;;;2.30;;
21878;SDS011;27908;42.708;23.278;2023-05-07T14:26:00;8.97;;;2.97;;
21878;SDS011;27908;42.708;23.278;2023-05-07T14:28:25;6.17;;;2.97;;
21878;SDS011;27908;42.708;23.278;2023-05-07T14:30:50;7.47;;;2.60;;
21878;SDS011;27908;42.708;23.278;2023-05-07T14:33:16;6.10;;;2.70;;
21878;SDS011;27908;42.708;23.278;2023-05-07T14:35:42;6.80;;;2.53;;
21878;SDS011;27908;42.708;23.278;2023-05-07T14:38:12;6.03;;;2.47;;
21878;SDS011;27908;42.708;23.278;2023-05-07T14:40:38;7.25;;;3.00;;